createdAt,value
2022-10-23T00:00:10.829Z,100.00
2022-10-23T00:03:02.893Z,100.00
2022-10-23T00:05:34.918Z,100.00
2022-10-23T00:08:07.040Z,100.00
2022-10-23T00:10:44.357Z,100.00
2022-10-23T00:13:16.601Z,100.00
2022-10-23T00:15:48.621Z,100.00
2022-10-23T00:18:20.943Z,100.00
2022-10-23T00:20:53.011Z,99.97
2022-10-23T00:23:25.784Z,99.69
2022-10-23T00:25:57.789Z,99.43
2022-10-23T00:28:30.075Z,99.25
2022-10-23T00:31:04.776Z,99.11
2022-10-23T00:33:37.318Z,99.11
2022-10-23T00:36:12.764Z,99.35
2022-10-23T00:38:45.959Z,99.20
2022-10-23T00:41:22.030Z,99.63
2022-10-23T00:44:10.797Z,99.85
2022-10-23T00:46:43.021Z,99.94
2022-10-23T00:49:16.279Z,99.94
2022-10-23T00:51:52.563Z,100.00
2022-10-23T00:54:28.053Z,99.94
2022-10-23T00:57:06.222Z,99.97
2022-10-23T00:59:39.288Z,99.95
2022-10-23T01:02:12.083Z,99.84
2022-10-23T01:04:44.817Z,99.15
2022-10-23T01:07:23.986Z,98.70
2022-10-23T01:10:04.821Z,98.61
2022-10-23T01:12:45.832Z,98.41
2022-10-23T01:15:23.187Z,98.23
2022-10-23T01:18:04.468Z,98.31
2022-10-23T01:20:45.596Z,97.72
2022-10-23T01:23:43.583Z,97.51
2022-10-23T01:26:32.414Z,97.27
2022-10-23T01:29:11.273Z,96.55
2022-10-23T01:31:51.361Z,96.16
2022-10-23T01:34:29.767Z,96.07
2022-10-23T01:37:05.812Z,96.03
2022-10-23T01:39:46.098Z,95.59
2022-10-23T01:42:23.551Z,95.64
2022-10-23T01:45:01.606Z,95.34
2022-10-23T01:47:40.711Z,95.17
2022-10-23T01:50:17.145Z,96.12
2022-10-23T01:52:51.379Z,95.75
2022-10-23T01:55:24.104Z,95.51
2022-10-23T01:57:57.166Z,95.68
2022-10-23T02:00:32.512Z,95.23
2022-10-23T02:03:04.665Z,95.16
2022-10-23T02:05:39.695Z,94.96
2022-10-23T02:08:12.134Z,94.78
2022-10-23T02:10:51.456Z,94.98
2022-10-23T02:13:32.415Z,95.04
2022-10-23T02:16:13.108Z,94.94
2022-10-23T02:18:53.628Z,95.82
2022-10-23T02:21:32.360Z,95.74
2022-10-23T02:24:08.894Z,95.76
2022-10-23T02:26:48.243Z,95.67
2022-10-23T02:29:27.357Z,95.83
2022-10-23T02:32:01.820Z,95.23
2022-10-23T02:34:34.499Z,94.87
2022-10-23T02:37:06.707Z,94.04
2022-10-23T02:39:38.917Z,94.23
2022-10-23T02:42:19.428Z,94.24
2022-10-23T02:45:01.953Z,94.06
2022-10-23T02:47:52.085Z,93.96
2022-10-23T02:50:33.649Z,93.63
2022-10-23T02:53:14.111Z,93.76
2022-10-23T02:55:57.379Z,94.69
2022-10-23T02:58:38.482Z,95.14
2022-10-23T03:01:15.208Z,95.02
2022-10-23T03:03:56.769Z,94.99
2022-10-23T03:06:29.190Z,94.76
2022-10-23T03:09:05.031Z,94.51
2022-10-23T03:11:37.063Z,94.35
2022-10-23T03:14:09.389Z,94.59
2022-10-23T03:16:41.597Z,94.22
2022-10-23T03:19:15.538Z,94.18
2022-10-23T03:21:47.950Z,94.41
2022-10-23T03:24:19.932Z,94.10
2022-10-23T03:26:51.902Z,93.98
2022-10-23T03:29:25.738Z,94.48
2022-10-23T03:31:58.288Z,94.94
2022-10-23T03:34:31.165Z,94.76
2022-10-23T03:37:03.491Z,94.66
2022-10-23T03:39:36.811Z,94.62
2022-10-23T03:42:08.819Z,94.54
2022-10-23T03:44:40.993Z,94.52
2022-10-23T03:47:12.985Z,94.72
2022-10-23T03:49:47.328Z,94.45
2022-10-23T03:52:19.236Z,94.48
2022-10-23T03:54:51.236Z,94.19
2022-10-23T03:57:24.252Z,94.03
2022-10-23T03:59:56.809Z,94.06
2022-10-23T04:02:29.351Z,94.16
2022-10-23T04:05:01.457Z,93.56
2022-10-23T04:07:33.889Z,93.44
2022-10-23T04:10:09.281Z,93.04
2022-10-23T04:12:42.025Z,93.38
2022-10-23T04:15:14.628Z,93.34
2022-10-23T04:17:49.985Z,92.96
2022-10-23T04:20:22.357Z,92.83
2022-10-23T04:22:55.576Z,92.42
2022-10-23T04:25:27.550Z,92.40
2022-10-23T04:27:59.514Z,92.18
2022-10-23T04:30:31.718Z,92.03
2022-10-23T04:33:04.034Z,92.02
2022-10-23T04:35:36.264Z,91.58
2022-10-23T04:38:08.213Z,91.46
2022-10-23T04:40:40.201Z,91.08
2022-10-23T04:43:12.796Z,91.30
2022-10-23T04:45:45.503Z,90.90
2022-10-23T04:48:17.522Z,90.72
2022-10-23T04:51:10.849Z,90.71
2022-10-23T04:53:57.454Z,90.41
2022-10-23T04:56:52.275Z,90.48
2022-10-23T04:59:26.297Z,90.15
2022-10-23T05:01:58.497Z,89.98
2022-10-23T05:04:31.051Z,90.07
2022-10-23T05:07:23.433Z,89.76
2022-10-23T05:10:14.186Z,89.66
2022-10-23T05:13:01.499Z,89.69
2022-10-23T05:15:34.240Z,89.67
2022-10-23T05:18:12.923Z,89.48
2022-10-23T05:20:49.688Z,89.71
2022-10-23T05:23:23.734Z,90.11
2022-10-23T05:26:03.269Z,90.59
2022-10-23T05:28:36.550Z,90.72
2022-10-23T05:31:09.729Z,91.11
2022-10-23T05:33:44.499Z,91.20
2022-10-23T05:36:17.477Z,91.26
2022-10-23T05:38:50.115Z,90.69
2022-10-23T05:41:23.541Z,90.74
2022-10-23T05:43:55.997Z,91.24
2022-10-23T05:46:46.859Z,91.16
2022-10-23T05:49:27.030Z,91.39
2022-10-23T05:52:20.221Z,91.69
2022-10-23T05:55:15.067Z,91.78
2022-10-23T05:57:53.536Z,91.83
2022-10-23T06:00:36.567Z,91.95
2022-10-23T06:03:19.686Z,91.93
2022-10-23T06:05:55.631Z,92.11
2022-10-23T06:08:33.466Z,92.39
2022-10-23T06:11:11.130Z,92.89
2022-10-23T06:13:46.067Z,92.48
2022-10-23T06:16:21.593Z,92.71
2022-10-23T06:18:53.693Z,92.87
2022-10-23T06:21:26.122Z,92.53
2022-10-23T06:24:01.559Z,92.65
2022-10-23T06:26:36.813Z,92.79
2022-10-23T06:29:27.259Z,92.51
2022-10-23T06:31:59.561Z,92.49
2022-10-23T06:34:32.367Z,93.35
2022-10-23T06:37:04.602Z,93.90
2022-10-23T06:40:08.028Z,93.54
2022-10-23T06:43:12.537Z,93.98
2022-10-23T06:46:05.044Z,94.32
2022-10-23T06:49:00.174Z,94.09
2022-10-23T06:51:36.511Z,94.11
2022-10-23T06:54:09.466Z,93.67
2022-10-23T06:56:53.859Z,93.94
2022-10-23T06:59:36.642Z,94.12
2022-10-23T07:02:10.163Z,94.24
2022-10-23T07:04:42.566Z,93.99
2022-10-23T07:07:19.979Z,93.85
2022-10-23T07:09:53.581Z,94.19
2022-10-23T07:12:42.789Z,94.26
2022-10-23T07:15:40.880Z,93.91
2022-10-23T07:18:18.992Z,93.47
2022-10-23T07:21:14.308Z,92.97
2022-10-23T07:23:47.248Z,92.68
2022-10-23T07:26:20.575Z,92.41
2022-10-23T07:28:55.208Z,92.49
2022-10-23T07:31:28.152Z,92.46
2022-10-23T07:34:19.156Z,92.52
2022-10-23T07:36:52.542Z,91.62
2022-10-23T07:39:24.893Z,91.23
2022-10-23T07:41:57.164Z,91.82
2022-10-23T07:44:30.080Z,92.73
2022-10-23T07:47:02.079Z,93.27
2022-10-23T07:49:34.116Z,93.18
2022-10-23T07:52:07.547Z,93.08
2022-10-23T07:54:56.957Z,93.59
2022-10-23T07:57:30.464Z,92.89
2022-10-23T08:00:14.764Z,93.19
2022-10-23T08:02:46.904Z,93.30
2022-10-23T08:05:21.575Z,93.35
2022-10-23T08:07:59.680Z,93.26
2022-10-23T08:10:32.054Z,93.92
2022-10-23T08:13:04.666Z,94.07
2022-10-23T08:15:56.880Z,93.71
2022-10-23T08:18:49.868Z,92.98
2022-10-23T08:21:22.173Z,92.83
2022-10-23T08:23:56.547Z,92.47
2022-10-23T08:26:30.383Z,92.72
2022-10-23T08:29:02.797Z,92.21
2022-10-23T08:31:36.216Z,93.50
2022-10-23T08:34:21.321Z,92.93
2022-10-23T08:36:54.157Z,92.19
2022-10-23T08:39:26.273Z,92.96
2022-10-23T08:42:27.336Z,93.39
2022-10-23T08:45:07.476Z,93.69
2022-10-23T08:47:48.260Z,94.22
2022-10-23T08:50:56.530Z,93.70
2022-10-23T08:53:35.823Z,93.17
2022-10-23T08:56:13.740Z,92.77
2022-10-23T09:01:39.738Z,93.29
2022-10-23T09:04:15.256Z,92.81
2022-10-23T09:07:00.077Z,93.17
2022-10-23T09:09:51.459Z,92.82
2022-10-23T09:12:26.979Z,92.00
2022-10-23T09:15:14.948Z,91.28
2022-10-23T09:17:49.134Z,92.01
2022-10-23T09:20:24.500Z,93.08
2022-10-23T09:23:01.347Z,93.20
2022-10-23T09:25:36.395Z,93.15
2022-10-23T09:28:07.530Z,93.69
2022-10-23T09:30:42.704Z,93.74
2022-10-23T09:33:17.221Z,93.04
2022-10-23T09:35:59.079Z,93.10
2022-10-23T09:38:34.619Z,92.98
2022-10-23T09:41:15.181Z,92.63
2022-10-23T09:43:47.632Z,93.20
2022-10-23T09:46:24.728Z,93.76
2022-10-23T09:49:03.575Z,94.57
2022-10-23T09:51:41.865Z,94.79
2022-10-23T09:54:19.660Z,94.30
2022-10-23T09:56:52.979Z,93.58
2022-10-23T09:59:29.058Z,92.63
2022-10-23T10:02:04.041Z,92.97
2022-10-23T10:04:55.931Z,92.91
2022-10-23T10:07:33.394Z,92.51
2022-10-23T10:10:18.073Z,93.08
2022-10-23T10:12:58.402Z,93.62
2022-10-23T10:15:37.512Z,93.99
2022-10-23T10:18:23.186Z,94.31
2022-10-23T10:21:15.364Z,94.54
2022-10-23T10:23:54.504Z,93.96
2022-10-23T10:26:36.321Z,93.69
2022-10-23T10:29:20.278Z,94.34
2022-10-23T10:32:04.416Z,94.82
2022-10-23T10:34:44.323Z,94.18
2022-10-23T10:37:27.979Z,92.15
2022-10-23T10:40:08.560Z,91.29
2022-10-23T10:42:55.675Z,91.49
2022-10-23T10:45:34.455Z,91.75
2022-10-23T10:48:21.730Z,91.98
2022-10-23T10:51:29.051Z,89.82
2022-10-23T10:54:16.504Z,90.05
2022-10-23T10:56:50.239Z,90.29
2022-10-23T10:59:25.130Z,89.05
2022-10-23T11:02:01.268Z,88.14
2022-10-23T11:04:38.392Z,88.92
2022-10-23T11:07:16.120Z,86.62
2022-10-23T11:09:49.009Z,86.02
2022-10-23T11:12:24.894Z,85.66
2022-10-23T11:14:57.745Z,85.55
2022-10-23T11:17:37.595Z,84.22
2022-10-23T11:20:26.496Z,84.35
2022-10-23T11:23:07.151Z,82.82
2022-10-23T11:25:57.902Z,82.70
2022-10-23T11:28:48.617Z,82.42
2022-10-23T11:31:30.957Z,82.34
2022-10-23T11:34:24.455Z,82.96
2022-10-23T11:36:58.607Z,82.35
2022-10-23T11:39:32.580Z,81.50
2022-10-23T11:42:34.862Z,80.65
2022-10-23T11:45:21.225Z,81.51
2022-10-23T11:48:01.319Z,81.89
2022-10-23T11:50:50.631Z,81.28
2022-10-23T11:53:40.644Z,80.07
2022-10-23T11:56:33.988Z,80.62
2022-10-23T11:59:24.489Z,79.44
2022-10-23T12:01:58.740Z,78.75
2022-10-23T12:04:39.515Z,77.83
2022-10-23T12:07:24.101Z,78.07
2022-10-23T12:10:00.648Z,76.89
2022-10-23T12:12:40.934Z,77.09
2022-10-23T12:15:23.511Z,76.87
2022-10-23T12:17:58.628Z,76.05
2022-10-23T12:20:46.102Z,76.04
2022-10-23T12:23:53.356Z,75.77
2022-10-23T12:26:50.876Z,75.47
2022-10-23T12:29:34.300Z,75.24
2022-10-23T12:32:18.636Z,75.20
2022-10-23T12:34:58.644Z,75.16
2022-10-23T12:37:49.490Z,74.12
2022-10-23T12:40:22.060Z,74.16
2022-10-23T12:42:56.079Z,74.69
2022-10-23T12:45:31.051Z,74.77
2022-10-23T12:48:05.594Z,74.04
2022-10-23T12:50:38.334Z,74.41
2022-10-23T12:53:19.006Z,74.66
2022-10-23T12:55:55.683Z,75.03
2022-10-23T12:58:32.903Z,75.77
2022-10-23T13:01:08.492Z,76.58
2022-10-23T13:03:41.414Z,76.02
2022-10-23T13:06:14.679Z,76.02
2022-10-23T13:08:49.040Z,76.30
2022-10-23T13:11:34.926Z,75.43
2022-10-23T13:14:15.293Z,76.58
2022-10-23T13:16:47.416Z,75.02
2022-10-23T13:19:27.746Z,74.37
2022-10-23T13:22:00.535Z,74.76
2022-10-23T13:24:33.921Z,79.22
2022-10-23T13:27:25.729Z,76.36
2022-10-23T13:29:58.423Z,75.75
2022-10-23T13:32:33.154Z,75.59
2022-10-23T13:35:20.811Z,75.80
2022-10-23T13:37:53.766Z,76.04
2022-10-23T13:40:28.376Z,75.49
2022-10-23T13:43:00.674Z,76.35
2022-10-23T13:45:36.822Z,76.86
2022-10-23T13:48:16.188Z,75.49
2022-10-23T13:50:48.456Z,74.93
2022-10-23T13:53:21.358Z,73.24
2022-10-23T13:55:57.800Z,72.75
2022-10-23T13:58:30.905Z,72.90
2022-10-23T14:01:03.847Z,73.93
2022-10-23T14:03:36.739Z,74.42
2022-10-23T14:06:09.624Z,73.52
2022-10-23T14:08:41.779Z,73.27
2022-10-23T14:13:53.601Z,73.57
2022-10-23T14:16:25.994Z,74.40
2022-10-23T14:18:58.503Z,72.43
2022-10-23T14:21:30.713Z,72.97
2022-10-23T14:24:02.863Z,72.46
2022-10-23T14:26:35.148Z,72.92
2022-10-23T14:29:11.395Z,72.60
2022-10-23T14:31:46.266Z,73.70
2022-10-23T14:34:18.237Z,73.18
2022-10-23T14:37:03.518Z,73.47
2022-10-23T14:39:39.900Z,74.74
2022-10-23T14:42:11.978Z,75.48
2022-10-23T14:44:45.079Z,75.08
2022-10-23T14:47:19.058Z,75.43
2022-10-23T14:49:53.502Z,76.04
2022-10-23T14:52:26.114Z,77.47
2022-10-23T14:54:58.222Z,78.62
2022-10-23T14:57:30.678Z,79.12
2022-10-23T15:00:03.290Z,79.73
2022-10-23T15:02:37.396Z,80.26
2022-10-23T15:05:10.389Z,80.59
2022-10-23T15:07:42.630Z,80.81
2022-10-23T15:12:52.956Z,81.43
2022-10-23T15:15:25.152Z,81.51
2022-10-23T15:17:57.607Z,81.81
2022-10-23T15:20:29.631Z,81.87
2022-10-23T15:23:03.095Z,81.62
2022-10-23T15:25:35.345Z,81.73
2022-10-23T15:28:07.724Z,82.01
2022-10-23T15:30:43.558Z,81.87
2022-10-23T15:33:19.192Z,82.20
2022-10-23T15:35:53.002Z,81.71
2022-10-23T15:38:36.981Z,81.77
2022-10-23T15:41:18.707Z,81.46
2022-10-23T15:43:52.087Z,81.68
2022-10-23T15:46:24.493Z,81.75
2022-10-23T15:48:57.365Z,81.52
2022-10-23T15:51:29.614Z,81.82
2022-10-23T15:54:01.799Z,82.09
2022-10-23T15:56:35.354Z,82.00
2022-10-23T15:59:07.606Z,82.15
2022-10-23T16:01:40.193Z,81.99
2022-10-23T16:04:12.572Z,82.30
2022-10-23T16:06:45.116Z,82.14
2022-10-23T16:09:18.176Z,81.99
2022-10-23T16:11:50.615Z,82.00
2022-10-23T16:14:22.783Z,82.05
2022-10-23T16:16:55.005Z,81.68
2022-10-23T16:19:27.192Z,81.98
2022-10-23T16:21:59.416Z,81.95
2022-10-23T16:24:32.212Z,82.30
2022-10-23T16:27:04.648Z,82.36
2022-10-23T16:29:36.745Z,82.30
2022-10-23T16:32:09.138Z,81.91
2022-10-23T16:34:41.965Z,82.00
2022-10-23T16:37:14.115Z,82.11
2022-10-23T16:39:57.571Z,81.87
2022-10-23T16:42:48.289Z,81.68
2022-10-23T16:45:43.821Z,81.80
2022-10-23T16:48:15.954Z,81.98
2022-10-23T16:50:48.045Z,82.36
2022-10-23T16:53:20.317Z,82.90
2022-10-23T16:55:52.617Z,82.73
2022-10-23T16:58:25.421Z,81.83
2022-10-23T17:01:03.419Z,82.40
2022-10-23T17:03:39.100Z,82.76
2022-10-23T17:06:13.431Z,82.57
2022-10-23T17:08:46.037Z,82.56
2022-10-23T17:11:20.381Z,82.72
2022-10-23T17:13:58.545Z,82.71
2022-10-23T17:16:34.566Z,82.79
2022-10-23T17:19:20.787Z,83.39
2022-10-23T17:22:01.020Z,83.81
2022-10-23T17:24:33.770Z,84.15
2022-10-23T17:27:06.621Z,84.32
2022-10-23T17:29:39.725Z,84.79
2022-10-23T17:32:11.768Z,84.93
2022-10-23T17:34:44.265Z,84.65
2022-10-23T17:37:17.337Z,85.08
2022-10-23T17:39:49.314Z,84.67
2022-10-23T17:42:21.415Z,84.63
2022-10-23T17:44:53.531Z,85.15
2022-10-23T17:47:25.716Z,85.59
2022-10-23T17:49:58.560Z,85.68
2022-10-23T17:52:31.007Z,85.47
2022-10-23T17:55:03.248Z,85.95
2022-10-23T17:57:35.366Z,85.37
2022-10-23T18:00:09.618Z,85.53
2022-10-23T18:02:52.772Z,85.40
2022-10-23T18:05:25.070Z,85.04
2022-10-23T18:07:57.431Z,84.66
2022-10-23T18:10:29.702Z,84.68
2022-10-23T18:13:02.133Z,84.56
2022-10-23T18:15:36.611Z,84.76
2022-10-23T18:18:08.862Z,84.73
2022-10-23T18:20:43.844Z,85.39
2022-10-23T18:23:15.913Z,85.45
2022-10-23T18:25:48.117Z,85.42
2022-10-23T18:28:20.811Z,85.71
2022-10-23T18:30:56.174Z,85.74
2022-10-23T18:33:29.804Z,85.32
2022-10-23T18:36:02.097Z,85.34
2022-10-23T18:38:37.032Z,85.69
2022-10-23T18:41:09.269Z,85.97
2022-10-23T18:43:44.099Z,85.70
2022-10-23T18:46:17.681Z,85.79
2022-10-23T18:48:52.099Z,85.79
2022-10-23T18:51:24.068Z,85.45
2022-10-23T18:53:56.570Z,85.04
2022-10-23T18:56:28.560Z,84.84
2022-10-23T18:59:02.910Z,84.84
2022-10-23T19:01:35.706Z,84.73
2022-10-23T19:04:08.842Z,84.33
2022-10-23T19:06:41.946Z,84.44
2022-10-23T19:09:16.498Z,84.55
2022-10-23T19:11:48.698Z,84.42
2022-10-23T19:14:20.904Z,84.64
2022-10-23T19:17:01.016Z,84.53
2022-10-23T19:19:36.214Z,84.37
2022-10-23T19:22:09.622Z,84.43
2022-10-23T19:24:45.329Z,84.21
2022-10-23T19:27:18.439Z,84.39
2022-10-23T19:29:52.304Z,84.85
2022-10-23T19:32:24.557Z,85.51
2022-10-23T19:34:56.699Z,86.70
2022-10-23T19:37:28.833Z,86.93
2022-10-23T19:40:02.573Z,86.99
2022-10-23T19:42:35.189Z,86.94
2022-10-23T19:45:09.451Z,87.22
2022-10-23T19:47:42.612Z,87.29
2022-10-23T19:50:18.854Z,86.83
2022-10-23T19:52:51.229Z,86.79
2022-10-23T19:55:23.326Z,86.13
2022-10-23T19:57:55.445Z,86.39
2022-10-23T20:00:28.537Z,86.12
2022-10-23T20:03:00.756Z,86.06
2022-10-23T20:05:33.394Z,86.29
2022-10-23T20:08:06.277Z,85.97
2022-10-23T20:10:43.866Z,86.18
2022-10-23T20:13:19.931Z,86.21
2022-10-23T20:15:52.879Z,86.15
2022-10-23T20:18:25.961Z,86.14
2022-10-23T20:20:58.324Z,85.86
2022-10-23T20:23:30.795Z,85.98
2022-10-23T20:26:14.642Z,85.62
2022-10-23T20:28:51.392Z,85.76
2022-10-23T20:31:25.714Z,85.57
2022-10-23T20:33:58.992Z,85.21
2022-10-23T20:36:34.944Z,84.97
2022-10-23T20:39:15.285Z,84.92
2022-10-23T20:41:47.898Z,84.60
2022-10-23T20:44:22.669Z,84.52
2022-10-23T20:46:56.242Z,84.46
2022-10-23T20:49:28.887Z,84.10
2022-10-23T20:52:01.439Z,83.98
2022-10-23T20:54:35.467Z,83.55
2022-10-23T20:57:08.773Z,83.58
2022-10-23T20:59:40.979Z,83.63
2022-10-23T21:02:13.434Z,83.24
2022-10-23T21:04:47.711Z,83.43
2022-10-23T21:07:20.955Z,82.94
2022-10-23T21:09:53.096Z,82.95
2022-10-23T21:12:25.365Z,83.24
2022-10-23T21:14:58.632Z,82.85
2022-10-23T21:17:35.805Z,82.79
2022-10-23T21:20:09.543Z,82.84
2022-10-23T21:22:41.786Z,82.74
2022-10-23T21:25:15.808Z,82.55
2022-10-23T21:27:48.019Z,82.20
2022-10-23T21:30:20.221Z,82.38
2022-10-23T21:32:52.334Z,82.10
2022-10-23T21:35:26.586Z,81.98
2022-10-23T21:38:01.458Z,82.06
2022-10-23T21:40:33.768Z,82.09
2022-10-23T21:43:07.057Z,82.03
2022-10-23T21:45:40.949Z,82.12
2022-10-23T21:48:12.938Z,81.76
2022-10-23T21:50:45.732Z,81.68
2022-10-23T21:53:18.269Z,81.74
2022-10-23T21:55:50.358Z,81.60
2022-10-23T21:58:24.816Z,81.55
2022-10-23T22:00:56.941Z,81.59
2022-10-23T22:03:29.596Z,81.58
2022-10-23T22:06:02.644Z,82.05
2022-10-23T22:08:35.116Z,82.22
2022-10-23T22:11:08.722Z,83.22
2022-10-23T22:13:43.749Z,83.20
2022-10-23T22:16:16.581Z,83.86
2022-10-23T22:18:49.306Z,84.42
2022-10-23T22:21:24.173Z,84.34
2022-10-23T22:23:59.743Z,84.04
2022-10-23T22:26:34.532Z,84.49
2022-10-23T22:29:08.494Z,84.59
2022-10-23T22:31:44.218Z,84.21
2022-10-23T22:34:34.885Z,84.54
2022-10-23T22:37:13.861Z,84.51
2022-10-23T22:39:45.797Z,84.60
2022-10-23T22:42:18.102Z,84.48
2022-10-23T22:44:50.218Z,84.24
2022-10-23T22:47:22.097Z,83.94
2022-10-23T22:49:54.385Z,83.56
2022-10-23T22:52:26.479Z,83.53
2022-10-23T22:54:58.486Z,83.66
2022-10-23T22:57:31.848Z,83.62
2022-10-23T23:00:04.225Z,83.57
2022-10-23T23:02:36.226Z,83.75
2022-10-23T23:05:11.183Z,83.93
2022-10-23T23:07:41.877Z,84.27
2022-10-23T23:10:14.000Z,84.09
2022-10-23T23:12:46.417Z,84.25
2022-10-23T23:15:19.205Z,84.20
2022-10-23T23:17:51.233Z,84.07
2022-10-23T23:20:23.311Z,84.11
2022-10-23T23:22:55.294Z,83.98
2022-10-23T23:25:27.572Z,84.26
2022-10-23T23:28:00.037Z,83.93
2022-10-23T23:30:32.009Z,83.90
2022-10-23T23:33:04.342Z,83.69
2022-10-23T23:35:40.188Z,83.62
2022-10-23T23:38:13.242Z,83.50
2022-10-23T23:40:52.807Z,83.32
2022-10-23T23:43:29.994Z,83.56
2022-10-23T23:46:02.276Z,83.46
2022-10-23T23:48:34.279Z,83.08
2022-10-23T23:51:07.009Z,82.98
2022-10-23T23:53:39.321Z,83.14
2022-10-23T23:56:11.977Z,83.03
2022-10-23T23:58:44.222Z,82.87
